Time,TemperatureF,DewpointF,PressureIn,WindDirection,WindDirectionDegrees,WindSpeedMPH,WindSpeedGustMPH,Humidity,HourlyPrecipIn,Conditions,Clouds,dailyrainin,SoftwareType,DateUTC
2013-03-22 00:00:00,57.7,46.8,29.89,North,32767,0.0,0.0,67,0.00,,,0.00,Wunderground v.1.15,2013-03-22 05:00:00,
2013-03-22 00:05:00,57.9,47.0,29.89,North,32767,0.0,0.0,67,0.00,,,0.00,Wunderground v.1.15,2013-03-22 05:05:00,
2013-03-22 00:15:00,58.2,46.1,29.89,North,32767,0.0,0.0,64,0.00,,,0.00,Wunderground v.1.15,2013-03-22 05:15:00,
2013-03-22 00:20:00,58.3,46.2,29.89,North,32767,0.0,0.0,64,0.00,,,0.00,Wunderground v.1.15,2013-03-22 05:20:00,
2013-03-22 00:25:00,58.4,45.8,29.88,North,32767,0.0,0.0,63,0.00,,,0.00,Wunderground v.1.15,2013-03-22 05:25:00,
2013-03-22 00:30:00,58.5,45.9,29.89,North,32767,0.0,0.0,63,0.00,,,0.00,Wunderground v.1.15,2013-03-22 05:30:00,
2013-03-22 00:35:00,58.5,46.4,29.89,North,32767,0.0,0.0,64,0.00,,,0.00,Wunderground v.1.15,2013-03-22 05:35:00,
2013-03-22 00:40:00,58.5,45.5,29.88,North,32767,0.0,0.0,62,0.00,,,0.00,Wunderground v.1.15,2013-03-22 05:40:00,
2013-03-22 00:45:00,58.6,45.6,29.89,North,32767,0.0,0.0,62,0.00,,,0.00,Wunderground v.1.15,2013-03-22 05:45:00,
2013-03-22 00:50:00,58.7,46.1,29.89,North,32767,0.0,0.0,63,0.00,,,0.00,Wunderground v.1.15,2013-03-22 05:50:00,
2013-03-22 00:55:00,58.7,45.3,29.89,North,32767,0.0,0.0,61,0.00,,,0.00,Wunderground v.1.15,2013-03-22 05:55:00,
2013-03-22 01:00:00,58.7,44.8,29.89,North,32767,0.0,0.0,60,0.00,,,0.00,Wunderground v.1.15,2013-03-22 06:00:00,
2013-03-22 01:05:00,58.7,45.3,29.89,North,32767,0.0,0.0,61,0.00,,,0.00,Wunderground v.1.15,2013-03-22 06:05:00,
2013-03-22 01:10:00,58.8,45.4,29.89,North,32767,0.0,0.0,61,0.00,,,0.00,Wunderground v.1.15,2013-03-22 06:10:00,
2013-03-22 01:15:00,58.9,45.9,29.89,North,32767,0.0,0.0,62,0.00,,,0.00,Wunderground v.1.15,2013-03-22 06:15:00,
2013-03-22 01:20:00,58.9,46.3,29.89,North,32767,0.0,0.0,63,0.00,,,0.00,Wunderground v.1.15,2013-03-22 06:20:00,
2013-03-22 01:25:00,59.0,46.8,29.89,North,32767,0.0,0.0,64,0.00,,,0.00,Wunderground v.1.15,2013-03-22 06:25:00,
2013-03-22 01:30:00,59.1,47.3,29.90,North,32767,0.0,0.0,65,0.00,,,0.00,Wunderground v.1.15,2013-03-22 06:30:00,
2013-03-22 01:35:00,59.2,47.4,29.90,North,32767,0.0,0.0,65,0.00,,,0.00,Wunderground v.1.15,2013-03-22 06:35:00,
2013-03-22 01:40:00,59.2,47.8,29.89,North,32767,0.0,0.0,66,0.00,,,0.00,Wunderground v.1.15,2013-03-22 06:40:00,
2013-03-22 01:45:00,59.2,47.4,29.89,North,32767,0.0,0.0,65,0.00,,,0.00,Wunderground v.1.15,2013-03-22 06:45:00,
2013-03-22 01:50:00,59.3,47.9,29.90,North,32767,0.0,0.0,66,0.00,,,0.00,Wunderground v.1.15,2013-03-22 06:50:00,
2013-03-22 01:55:00,59.3,47.9,29.90,North,32767,0.0,0.0,66,0.00,,,0.00,Wunderground v.1.15,2013-03-22 06:55:00,
2013-03-22 02:00:00,59.3,47.9,29.90,North,32767,0.0,0.0,66,0.00,,,0.00,Wunderground v.1.15,2013-03-22 07:00:00,
2013-03-22 02:05:00,59.2,47.8,29.89,North,32767,0.0,0.0,66,0.00,,,0.00,Wunderground v.1.15,2013-03-22 07:05:00,
2013-03-22 02:15:00,59.1,47.7,29.90,North,32767,0.0,0.0,66,0.00,,,0.00,Wunderground v.1.15,2013-03-22 07:15:00,
2013-03-22 02:20:00,58.9,48.0,29.90,North,32767,0.0,0.0,67,0.00,,,0.00,Wunderground v.1.15,2013-03-22 07:20:00,
2013-03-22 02:25:00,58.8,47.9,29.90,North,32767,0.0,0.0,67,0.00,,,0.00,Wunderground v.1.15,2013-03-22 07:25:00,
2013-03-22 02:30:00,58.7,47.8,29.90,North,32767,0.0,0.0,67,0.00,,,0.00,Wunderground v.1.15,2013-03-22 07:30:00,
2013-03-22 02:35:00,58.6,48.1,29.90,North,32767,0.0,0.0,68,0.00,,,0.00,Wunderground v.1.15,2013-03-22 07:35:00,
2013-03-22 02:40:00,58.2,47.7,29.90,North,32767,0.0,0.0,68,0.00,,,0.00,Wunderground v.1.15,2013-03-22 07:40:00,
2013-03-22 02:45:00,58.0,47.9,29.90,North,32767,0.0,0.0,69,0.00,,,0.00,Wunderground v.1.15,2013-03-22 07:45:00,
2013-03-22 02:50:00,57.8,47.7,29.89,North,32767,0.0,0.0,69,0.00,,,0.00,Wunderground v.1.15,2013-03-22 07:50:00,
2013-03-22 02:55:00,57.7,48.0,29.89,North,32767,0.0,0.0,70,0.00,,,0.00,Wunderground v.1.15,2013-03-22 07:55:00,
2013-03-22 03:00:00,57.7,48.0,29.89,North,32767,0.0,0.0,70,0.00,,,0.00,Wunderground v.1.15,2013-03-22 08:00:00,
2013-03-22 03:05:00,57.6,48.3,29.88,North,32767,0.0,0.0,71,0.00,,,0.00,Wunderground v.1.15,2013-03-22 08:05:00,
2013-03-22 03:10:00,57.6,48.3,29.88,North,32767,0.0,0.0,71,0.00,,,0.00,Wunderground v.1.15,2013-03-22 08:10:00,
2013-03-22 03:15:00,57.8,48.5,29.88,North,32767,0.0,0.0,71,0.00,,,0.00,Wunderground v.1.15,2013-03-22 08:15:00,
2013-03-22 03:20:00,57.8,48.5,29.88,North,32767,0.0,0.0,71,0.00,,,0.00,Wunderground v.1.15,2013-03-22 08:20:00,
2013-03-22 03:25:00,57.8,48.8,29.87,North,32767,0.0,0.0,72,0.00,,,0.00,Wunderground v.1.15,2013-03-22 08:25:00,
2013-03-22 03:30:00,57.7,48.7,29.85,North,32767,0.0,0.0,72,0.00,,,0.00,Wunderground v.1.15,2013-03-22 08:30:00,
2013-03-22 03:35:00,57.8,48.8,29.85,North,32767,0.0,0.0,72,0.00,,,0.00,Wunderground v.1.15,2013-03-22 08:35:00,
2013-03-22 03:40:00,58.1,49.1,29.86,North,32767,0.0,0.0,72,0.00,,,0.00,Wunderground v.1.15,2013-03-22 08:40:00,
2013-03-22 03:45:00,58.2,48.8,29.87,North,32767,0.0,0.0,71,0.00,,,0.00,Wunderground v.1.15,2013-03-22 08:45:00,
2013-03-22 03:55:00,58.4,49.0,29.88,North,32767,0.0,0.0,71,0.00,,,0.00,Wunderground v.1.15,2013-03-22 08:55:00,
2013-03-22 04:00:00,58.3,49.3,29.87,North,32767,0.0,0.0,72,0.00,,,0.00,Wunderground v.1.15,2013-03-22 09:00:00,
2013-03-22 04:05:00,58.1,49.1,29.87,North,32767,0.0,0.0,72,0.00,,,0.00,Wunderground v.1.15,2013-03-22 09:05:00,
2013-03-22 04:10:00,58.3,49.3,29.87,North,32767,0.0,0.0,72,0.00,,,0.00,Wunderground v.1.15,2013-03-22 09:10:00,
2013-03-22 04:15:00,58.6,49.2,29.86,North,32767,0.0,0.0,71,0.00,,,0.00,Wunderground v.1.15,2013-03-22 09:15:00,
2013-03-22 04:20:00,58.8,49.4,29.86,North,32767,0.0,0.0,71,0.00,,,0.00,Wunderground v.1.15,2013-03-22 09:20:00,
2013-03-22 04:25:00,59.0,49.6,29.86,North,32767,0.0,0.0,71,0.00,,,0.00,Wunderground v.1.15,2013-03-22 09:25:00,
2013-03-22 04:30:00,59.2,49.4,29.86,North,32767,0.0,0.0,70,0.00,,,0.00,Wunderground v.1.15,2013-03-22 09:30:00,
2013-03-22 04:40:00,59.7,49.9,29.87,North,32767,0.0,0.0,70,0.00,,,0.00,Wunderground v.1.15,2013-03-22 09:40:00,
2013-03-22 04:45:00,58.8,51.2,29.86,North,32767,0.0,0.0,76,0.00,,,0.00,Wunderground v.1.15,2013-03-22 09:45:00,
2013-03-22 04:50:00,57.7,50.9,29.86,North,32767,0.0,0.0,78,0.00,,,0.00,Wunderground v.1.15,2013-03-22 09:50:00,
2013-03-22 04:55:00,56.9,50.8,29.86,North,32767,0.0,0.0,80,0.00,,,0.00,Wunderground v.1.15,2013-03-22 09:55:00,
2013-03-22 05:00:00,56.5,50.7,29.86,North,32767,0.0,0.0,81,0.00,,,0.00,Wunderground v.1.15,2013-03-22 10:00:00,
2013-03-22 05:05:00,56.2,50.8,29.86,North,32767,0.0,0.0,82,0.00,,,0.00,Wunderground v.1.15,2013-03-22 10:05:00,
2013-03-22 05:15:00,55.2,50.4,29.86,North,32767,0.0,0.0,84,0.00,,,0.00,Wunderground v.1.15,2013-03-22 10:15:00,
2013-03-22 05:20:00,55.0,50.9,29.86,North,32767,0.0,0.0,86,0.00,,,0.00,Wunderground v.1.15,2013-03-22 10:20:00,
2013-03-22 05:25:00,54.9,51.1,29.86,North,32767,0.0,0.0,87,0.00,,,0.00,Wunderground v.1.15,2013-03-22 10:25:00,
2013-03-22 05:30:00,55.4,51.9,29.86,North,32767,0.0,0.0,88,0.00,,,0.00,Wunderground v.1.15,2013-03-22 10:30:00,
2013-03-22 05:35:00,56.4,50.6,29.86,North,32767,0.0,0.0,81,0.00,,,0.00,Wunderground v.1.15,2013-03-22 10:35:00,
2013-03-22 05:40:00,58.4,50.9,29.86,North,32767,0.0,0.0,76,0.00,,,0.00,Wunderground v.1.15,2013-03-22 10:40:00,
2013-03-22 05:45:00,59.6,50.6,29.86,North,32767,0.0,0.0,72,0.00,,,0.00,Wunderground v.1.15,2013-03-22 10:45:00,
2013-03-22 05:50:00,60.1,51.0,29.86,North,32767,0.0,0.0,72,0.00,,,0.00,Wunderground v.1.15,2013-03-22 10:50:00,
2013-03-22 05:55:00,60.5,50.7,29.85,North,32767,0.0,0.0,70,0.00,,,0.00,Wunderground v.1.15,2013-03-22 10:55:00,
2013-03-22 06:05:00,60.8,51.3,29.85,North,32767,0.0,0.0,71,0.00,,,0.00,Wunderground v.1.15,2013-03-22 11:05:00,
2013-03-22 06:15:00,60.7,51.2,29.85,North,32767,0.0,0.0,71,0.00,,,0.00,Wunderground v.1.15,2013-03-22 11:15:00,
2013-03-22 06:20:00,60.8,51.7,29.85,North,32767,0.0,0.0,72,0.00,,,0.00,Wunderground v.1.15,2013-03-22 11:20:00,
2013-03-22 06:30:00,61.0,51.9,29.85,North,32767,0.0,0.0,72,0.00,,,0.00,Wunderground v.1.15,2013-03-22 11:30:00,
2013-03-22 06:35:00,61.2,52.1,29.86,North,32767,0.0,0.0,72,0.00,,,0.00,Wunderground v.1.15,2013-03-22 11:35:00,
2013-03-22 06:40:00,61.4,52.3,29.86,North,32767,0.0,0.0,72,0.00,,,0.00,Wunderground v.1.15,2013-03-22 11:40:00,
2013-03-22 06:45:00,61.6,52.1,29.87,North,32767,0.0,0.0,71,0.00,,,0.00,Wunderground v.1.15,2013-03-22 11:45:00,
2013-03-22 06:50:00,61.8,51.9,29.87,North,32767,0.0,0.0,70,0.00,,,0.00,Wunderground v.1.15,2013-03-22 11:50:00,
2013-03-22 06:55:00,61.7,55.1,29.88,North,32767,0.0,0.0,79,0.00,,,0.00,Wunderground v.1.15,2013-03-22 11:55:00,
2013-03-22 07:05:00,60.8,55.3,29.88,North,32767,0.0,0.0,82,0.00,,,0.00,Wunderground v.1.15,2013-03-22 12:05:00,
2013-03-22 07:15:00,60.0,54.8,29.88,North,32767,0.0,0.0,83,0.00,,,0.00,Wunderground v.1.15,2013-03-22 12:15:00,
2013-03-22 07:20:00,59.5,54.7,29.87,North,32767,0.0,0.0,84,0.00,,,0.00,Wunderground v.1.15,2013-03-22 12:20:00,
2013-03-22 07:25:00,59.2,54.4,29.87,North,32767,0.0,0.0,84,0.00,,,0.00,Wunderground v.1.15,2013-03-22 12:25:00,
2013-03-22 07:30:00,58.9,54.1,29.87,North,32767,0.0,0.0,84,0.00,,,0.00,Wunderground v.1.15,2013-03-22 12:30:00,
2013-03-22 07:35:00,58.6,53.8,29.87,North,32767,0.0,0.0,84,0.00,,,0.00,Wunderground v.1.15,2013-03-22 12:35:00,
2013-03-22 07:40:00,58.7,54.2,29.87,North,32767,0.0,0.0,85,0.00,,,0.00,Wunderground v.1.15,2013-03-22 12:40:00,
2013-03-22 07:45:00,59.1,54.6,29.87,North,32767,0.0,0.0,85,0.00,,,0.00,Wunderground v.1.15,2013-03-22 12:45:00,
2013-03-22 07:50:00,59.5,55.0,29.87,North,32767,0.0,0.0,85,0.00,,,0.00,Wunderground v.1.15,2013-03-22 12:50:00,
2013-03-22 07:55:00,60.2,55.3,29.88,North,32767,0.0,0.0,84,0.00,,,0.00,Wunderground v.1.15,2013-03-22 12:55:00,
2013-03-22 08:00:00,60.9,56.0,29.88,North,32767,0.0,0.0,84,0.00,,,0.00,Wunderground v.1.15,2013-03-22 13:00:00,
2013-03-22 08:05:00,60.7,55.5,29.88,North,32767,0.0,0.0,83,0.00,,,0.00,Wunderground v.1.15,2013-03-22 13:05:00,
2013-03-22 08:10:00,60.4,55.5,29.89,North,32767,0.0,0.0,84,0.00,,,0.00,Wunderground v.1.15,2013-03-22 13:10:00,
2013-03-22 08:15:00,60.3,55.4,29.89,North,32767,0.0,0.0,84,0.00,,,0.00,Wunderground v.1.15,2013-03-22 13:15:00,
2013-03-22 08:20:00,60.4,55.5,29.89,North,32767,0.0,0.0,84,0.00,,,0.00,Wunderground v.1.15,2013-03-22 13:20:00,
2013-03-22 08:25:00,60.6,55.7,29.89,North,32767,0.0,0.0,84,0.00,,,0.00,Wunderground v.1.15,2013-03-22 13:25:00,
2013-03-22 08:30:00,60.8,56.3,29.89,North,32767,0.0,0.0,85,0.00,,,0.00,Wunderground v.1.15,2013-03-22 13:30:00,
2013-03-22 08:35:00,60.9,56.0,29.89,North,32767,0.0,0.0,84,0.00,,,0.00,Wunderground v.1.15,2013-03-22 13:35:00,
2013-03-22 08:40:00,61.0,56.1,29.89,North,32767,0.0,0.0,84,0.00,,,0.00,Wunderground v.1.15,2013-03-22 13:40:00,
2013-03-22 08:45:00,61.1,56.6,29.89,North,32767,0.0,0.0,85,0.00,,,0.00,Wunderground v.1.15,2013-03-22 13:45:00,
2013-03-22 08:55:00,61.6,56.7,29.88,North,32767,0.0,0.0,84,0.00,,,0.00,Wunderground v.1.15,2013-03-22 13:55:00,
2013-03-22 09:00:00,62.1,56.9,29.87,North,32767,0.0,0.0,83,0.00,,,0.00,Wunderground v.1.15,2013-03-22 14:00:00,
2013-03-22 09:05:00,62.5,56.9,29.88,North,32767,0.0,0.0,82,0.00,,,0.00,Wunderground v.1.15,2013-03-22 14:05:00,
2013-03-22 09:10:00,62.9,57.7,29.88,North,32767,0.0,0.0,83,0.00,,,0.00,Wunderground v.1.15,2013-03-22 14:10:00,
2013-03-22 09:15:00,63.3,57.7,29.88,North,32767,0.0,0.0,82,0.00,,,0.00,Wunderground v.1.15,2013-03-22 14:15:00,
2013-03-22 09:20:00,63.8,56.8,29.88,North,32767,0.0,0.0,78,0.00,,,0.00,Wunderground v.1.15,2013-03-22 14:20:00,
2013-03-22 09:25:00,64.2,56.5,29.88,North,32767,0.0,0.0,76,0.00,,,0.00,Wunderground v.1.15,2013-03-22 14:25:00,
2013-03-22 09:30:00,65.1,56.6,29.88,North,32767,0.0,0.0,74,0.00,,,0.00,Wunderground v.1.15,2013-03-22 14:30:00,
2013-03-22 09:35:00,65.6,56.7,29.88,North,32767,0.0,0.0,73,0.00,,,0.00,Wunderground v.1.15,2013-03-22 14:35:00,
2013-03-22 09:40:00,65.7,56.4,29.88,North,32767,0.0,0.0,72,0.00,,,0.00,Wunderground v.1.15,2013-03-22 14:40:00,
2013-03-22 09:45:00,66.1,57.2,29.88,North,32767,0.0,0.0,73,0.00,,,0.00,Wunderground v.1.15,2013-03-22 14:45:00,
2013-03-22 09:50:00,66.4,57.5,29.88,North,32767,0.0,0.0,73,0.00,,,0.00,Wunderground v.1.15,2013-03-22 14:50:00,
2013-03-22 09:55:00,66.3,57.8,29.88,North,32767,0.0,0.0,74,0.00,,,0.00,Wunderground v.1.15,2013-03-22 14:55:00,
2013-03-22 10:00:00,66.3,57.8,29.88,North,32767,0.0,0.0,74,0.00,,,0.00,Wunderground v.1.15,2013-03-22 15:00:00,
2013-03-22 10:05:00,66.0,57.5,29.88,North,32767,0.0,0.0,74,0.00,,,0.00,Wunderground v.1.15,2013-03-22 15:05:00,
2013-03-22 10:10:00,65.9,57.0,29.88,North,32767,0.0,0.0,73,0.00,,,0.00,Wunderground v.1.15,2013-03-22 15:10:00,
2013-03-22 10:15:00,65.8,56.9,29.89,North,32767,0.0,0.0,73,0.00,,,0.00,Wunderground v.1.15,2013-03-22 15:15:00,
2013-03-22 10:20:00,65.4,56.9,29.89,North,32767,0.0,0.0,74,0.00,,,0.00,Wunderground v.1.15,2013-03-22 15:20:00,
2013-03-22 10:25:00,65.2,56.7,29.89,North,32767,0.0,0.0,74,0.00,,,0.00,Wunderground v.1.15,2013-03-22 15:25:00,
2013-03-22 10:30:00,65.0,56.9,29.90,North,32767,0.0,0.0,75,0.00,,,0.00,Wunderground v.1.15,2013-03-22 15:30:00,
2013-03-22 10:35:00,64.8,56.7,29.89,North,32767,0.0,0.0,75,0.00,,,0.00,Wunderground v.1.15,2013-03-22 15:35:00,
2013-03-22 10:40:00,64.8,57.1,29.90,North,32767,0.0,0.0,76,0.00,,,0.00,Wunderground v.1.15,2013-03-22 15:40:00,
2013-03-22 10:45:00,64.7,57.0,29.90,North,32767,0.0,0.0,76,0.00,,,0.00,Wunderground v.1.15,2013-03-22 15:45:00,
2013-03-22 10:50:00,64.7,57.3,29.90,North,32767,0.0,0.0,77,0.00,,,0.00,Wunderground v.1.15,2013-03-22 15:50:00,
2013-03-22 10:55:00,64.8,57.1,29.90,North,32767,0.0,0.0,76,0.00,,,0.00,Wunderground v.1.15,2013-03-22 15:55:00,
2013-03-22 11:00:00,64.9,57.5,29.90,North,32767,0.0,0.0,77,0.00,,,0.00,Wunderground v.1.15,2013-03-22 16:00:00,
2013-03-22 11:05:00,64.9,57.5,29.90,North,32767,0.0,0.0,77,0.00,,,0.00,Wunderground v.1.15,2013-03-22 16:05:00,
2013-03-22 11:10:00,64.9,57.9,29.90,North,32767,0.0,0.0,78,0.00,,,0.00,Wunderground v.1.15,2013-03-22 16:10:00,
2013-03-22 11:15:00,64.8,57.4,29.90,North,32767,0.0,0.0,77,0.00,,,0.00,Wunderground v.1.15,2013-03-22 16:15:00,
2013-03-22 11:20:00,64.7,57.3,29.90,North,32767,0.0,0.0,77,0.00,,,0.00,Wunderground v.1.15,2013-03-22 16:20:00,
2013-03-22 11:25:00,64.7,57.7,29.90,North,32767,0.0,0.0,78,0.00,,,0.00,Wunderground v.1.15,2013-03-22 16:25:00,
2013-03-22 11:30:00,64.7,58.0,29.90,North,32767,0.0,0.0,79,0.00,,,0.00,Wunderground v.1.15,2013-03-22 16:30:00,
2013-03-22 11:35:00,64.6,57.9,29.90,North,32767,0.0,0.0,79,0.00,,,0.00,Wunderground v.1.15,2013-03-22 16:35:00,
2013-03-22 11:45:00,64.8,58.1,29.90,North,32767,0.0,0.0,79,0.00,,,0.00,Wunderground v.1.15,2013-03-22 16:45:00,
2013-03-22 11:50:00,65.0,58.7,29.90,North,32767,0.0,0.0,80,0.00,,,0.00,Wunderground v.1.15,2013-03-22 16:50:00,
2013-03-22 11:55:00,65.2,58.9,29.90,North,32767,0.0,0.0,80,0.00,,,0.00,Wunderground v.1.15,2013-03-22 16:55:00,
2013-03-22 12:00:00,65.1,58.8,29.90,North,32767,0.0,0.0,80,0.00,,,0.00,Wunderground v.1.15,2013-03-22 17:00:00,
2013-03-22 12:05:00,64.9,58.6,29.90,North,32767,0.0,0.0,80,0.00,,,0.00,Wunderground v.1.15,2013-03-22 17:05:00,
2013-03-22 12:10:00,64.8,58.5,29.90,North,32767,0.0,0.0,80,0.00,,,0.00,Wunderground v.1.15,2013-03-22 17:10:00,
2013-03-22 12:15:00,64.3,59.0,29.90,North,32767,0.0,0.0,83,0.00,,,0.00,Wunderground v.1.15,2013-03-22 17:15:00,
2013-03-22 12:20:00,63.7,58.8,29.90,North,32767,0.0,0.0,84,0.00,,,0.00,Wunderground v.1.15,2013-03-22 17:20:00,
2013-03-22 12:25:00,63.5,58.9,29.90,North,32767,0.0,0.0,85,0.00,,,0.00,Wunderground v.1.15,2013-03-22 17:25:00,
2013-03-22 12:35:00,64.0,59.4,29.90,North,32767,0.0,0.0,85,0.00,,,0.00,Wunderground v.1.15,2013-03-22 17:35:00,
2013-03-22 12:40:00,64.4,59.8,29.90,North,32767,0.0,0.0,85,0.00,,,0.00,Wunderground v.1.15,2013-03-22 17:40:00,
2013-03-22 12:45:00,64.8,59.9,29.89,North,32767,0.0,0.0,84,0.00,,,0.00,Wunderground v.1.15,2013-03-22 17:45:00,
2013-03-22 12:50:00,65.0,59.7,29.89,North,32767,0.0,0.0,83,0.00,,,0.00,Wunderground v.1.15,2013-03-22 17:50:00,
2013-03-22 12:55:00,65.0,59.7,29.89,North,32767,0.0,0.0,83,0.00,,,0.00,Wunderground v.1.15,2013-03-22 17:55:00,
2013-03-22 13:00:00,65.3,60.0,29.88,North,32767,0.0,0.0,83,0.00,,,0.00,Wunderground v.1.15,2013-03-22 18:00:00,
2013-03-22 13:05:00,65.7,60.1,29.89,North,32767,0.0,0.0,82,0.00,,,0.00,Wunderground v.1.15,2013-03-22 18:05:00,
2013-03-22 13:10:00,65.4,59.8,29.89,North,32767,0.0,0.0,82,0.00,,,0.00,Wunderground v.1.15,2013-03-22 18:10:00,
2013-03-22 13:15:00,65.1,59.8,29.89,North,32767,0.0,0.0,83,0.00,,,0.00,Wunderground v.1.15,2013-03-22 18:15:00,
2013-03-22 13:20:00,65.0,59.7,29.88,North,32767,0.0,0.0,83,0.00,,,0.00,Wunderground v.1.15,2013-03-22 18:20:00,
2013-03-22 13:25:00,65.1,60.1,29.87,North,32767,0.0,0.0,84,0.00,,,0.00,Wunderground v.1.15,2013-03-22 18:25:00,
2013-03-22 13:35:00,64.9,60.3,29.86,North,32767,0.0,0.0,85,0.00,,,0.00,Wunderground v.1.15,2013-03-22 18:35:00,
2013-03-22 13:40:00,65.2,60.2,29.86,North,32767,0.0,0.0,84,0.00,,,0.00,Wunderground v.1.15,2013-03-22 18:40:00,
2013-03-22 13:45:00,65.4,60.4,29.86,North,32767,0.0,0.0,84,0.00,,,0.00,Wunderground v.1.15,2013-03-22 18:45:00,
2013-03-22 13:50:00,65.5,60.5,29.85,North,32767,0.0,0.0,84,0.00,,,0.00,Wunderground v.1.15,2013-03-22 18:50:00,
2013-03-22 13:55:00,65.9,60.9,29.86,North,32767,0.0,0.0,84,0.00,,,0.00,Wunderground v.1.15,2013-03-22 18:55:00,
2013-03-22 14:00:00,65.8,60.5,29.86,North,32767,0.0,0.0,83,0.00,,,0.00,Wunderground v.1.15,2013-03-22 19:00:00,
2013-03-22 14:05:00,65.7,60.4,29.86,North,32767,0.0,0.0,83,0.00,,,0.00,Wunderground v.1.15,2013-03-22 19:05:00,
2013-03-22 14:10:00,65.7,60.4,29.86,North,32767,0.0,0.0,83,0.00,,,0.00,Wunderground v.1.15,2013-03-22 19:10:00,
2013-03-22 14:15:00,65.5,60.2,29.86,North,32767,0.0,0.0,83,0.00,,,0.00,Wunderground v.1.15,2013-03-22 19:15:00,
2013-03-22 14:20:00,65.4,60.4,29.85,North,32767,0.0,0.0,84,0.00,,,0.00,Wunderground v.1.15,2013-03-22 19:20:00,
2013-03-22 14:25:00,65.5,60.5,29.85,North,32767,0.0,0.0,84,0.00,,,0.00,Wunderground v.1.15,2013-03-22 19:25:00,
2013-03-22 14:30:00,65.6,60.6,29.85,North,32767,0.0,0.0,84,0.00,,,0.00,Wunderground v.1.15,2013-03-22 19:30:00,
2013-03-22 14:35:00,65.5,61.2,29.85,North,32767,0.0,0.0,86,0.00,,,0.00,Wunderground v.1.15,2013-03-22 19:35:00,
2013-03-22 14:40:00,65.2,61.2,29.85,North,32767,0.0,0.0,87,0.00,,,0.00,Wunderground v.1.15,2013-03-22 19:40:00,
2013-03-22 14:45:00,64.9,61.3,29.85,North,32767,0.0,0.0,88,0.00,,,0.00,Wunderground v.1.15,2013-03-22 19:45:00,
2013-03-22 14:50:00,64.5,61.2,29.84,North,32767,0.0,0.0,89,0.00,,,0.00,Wunderground v.1.15,2013-03-22 19:50:00,
2013-03-22 14:55:00,64.2,61.2,29.84,North,32767,0.0,0.0,90,0.00,,,0.00,Wunderground v.1.15,2013-03-22 19:55:00,
2013-03-22 15:00:00,64.3,61.6,29.84,North,32767,0.0,0.0,91,0.00,,,0.00,Wunderground v.1.15,2013-03-22 20:00:00,
2013-03-22 15:05:00,64.1,60.8,29.84,North,32767,0.0,0.0,89,0.00,,,0.00,Wunderground v.1.15,2013-03-22 20:05:00,
2013-03-22 15:10:00,64.0,60.7,29.84,North,32767,0.0,0.0,89,0.00,,,0.00,Wunderground v.1.15,2013-03-22 20:10:00,
2013-03-22 15:15:00,64.1,60.8,29.84,North,32767,0.0,0.0,89,0.00,,,0.00,Wunderground v.1.15,2013-03-22 20:15:00,
2013-03-22 15:20:00,64.2,60.9,29.84,North,32767,0.0,0.0,89,0.00,,,0.00,Wunderground v.1.15,2013-03-22 20:20:00,
2013-03-22 15:25:00,64.5,60.9,29.84,North,32767,0.0,0.0,88,0.00,,,0.00,Wunderground v.1.15,2013-03-22 20:25:00,
2013-03-22 15:30:00,64.7,61.1,29.84,North,32767,0.0,0.0,88,0.00,,,0.00,Wunderground v.1.15,2013-03-22 20:30:00,
2013-03-22 15:35:00,64.8,61.2,29.84,North,32767,0.0,0.0,88,0.00,,,0.00,Wunderground v.1.15,2013-03-22 20:35:00,
2013-03-22 15:40:00,65.0,61.4,29.84,North,32767,0.0,0.0,88,0.00,,,0.00,Wunderground v.1.15,2013-03-22 20:40:00,
2013-03-22 15:45:00,65.4,61.4,29.84,North,32767,0.0,0.0,87,0.00,,,0.00,Wunderground v.1.15,2013-03-22 20:45:00,
2013-03-22 15:50:00,65.8,62.1,29.83,North,32767,0.0,0.0,88,0.00,,,0.00,Wunderground v.1.15,2013-03-22 20:50:00,
2013-03-22 16:00:00,65.8,62.1,29.83,North,32767,0.0,0.0,88,0.00,,,0.00,Wunderground v.1.15,2013-03-22 21:00:00,
2013-03-22 16:05:00,65.8,61.8,29.83,North,32767,0.0,0.0,87,0.00,,,0.00,Wunderground v.1.15,2013-03-22 21:05:00,
2013-03-22 16:10:00,65.9,61.6,29.83,North,32767,0.0,0.0,86,0.00,,,0.00,Wunderground v.1.15,2013-03-22 21:10:00,
2013-03-22 16:15:00,66.0,61.7,29.82,North,32767,0.0,0.0,86,0.00,,,0.00,Wunderground v.1.15,2013-03-22 21:15:00,
2013-03-22 16:20:00,66.2,61.6,29.83,North,32767,0.0,0.0,85,0.00,,,0.00,Wunderground v.1.15,2013-03-22 21:20:00,
2013-03-22 16:25:00,66.1,61.5,29.82,North,32767,0.0,0.0,85,0.00,,,0.00,Wunderground v.1.15,2013-03-22 21:25:00,
2013-03-22 16:30:00,66.2,61.9,29.82,North,32767,0.0,0.0,86,0.00,,,0.00,Wunderground v.1.15,2013-03-22 21:30:00,
2013-03-22 16:35:00,66.5,61.8,29.82,North,32767,0.0,0.0,85,0.00,,,0.00,Wunderground v.1.15,2013-03-22 21:35:00,
2013-03-22 16:40:00,66.5,62.2,29.82,North,32767,0.0,0.0,86,0.00,,,0.00,Wunderground v.1.15,2013-03-22 21:40:00,
2013-03-22 16:45:00,66.6,61.9,29.82,North,32767,0.0,0.0,85,0.00,,,0.00,Wunderground v.1.15,2013-03-22 21:45:00,
2013-03-22 16:50:00,66.4,62.1,29.82,North,32767,0.0,0.0,86,0.00,,,0.00,Wunderground v.1.15,2013-03-22 21:50:00,
2013-03-22 16:55:00,66.2,61.9,29.82,North,32767,0.0,0.0,86,0.00,,,0.00,Wunderground v.1.15,2013-03-22 21:55:00,
2013-03-22 17:00:00,65.9,61.6,29.82,North,32767,0.0,0.0,86,0.00,,,0.00,Wunderground v.1.15,2013-03-22 22:00:00,
2013-03-22 17:05:00,65.7,61.7,29.82,North,32767,0.0,0.0,87,0.00,,,0.00,Wunderground v.1.15,2013-03-22 22:05:00,
2013-03-22 17:10:00,65.6,61.6,29.82,North,32767,0.0,0.0,87,0.00,,,0.00,Wunderground v.1.15,2013-03-22 22:10:00,
2013-03-22 17:15:00,65.5,61.5,29.82,North,32767,0.0,0.0,87,0.00,,,0.00,Wunderground v.1.15,2013-03-22 22:15:00,
2013-03-22 17:20:00,65.3,61.7,29.82,North,32767,0.0,0.0,88,0.00,,,0.00,Wunderground v.1.15,2013-03-22 22:20:00,
2013-03-22 17:25:00,65.3,61.7,29.83,North,32767,0.0,0.0,88,0.00,,,0.00,Wunderground v.1.15,2013-03-22 22:25:00,
2013-03-22 17:30:00,65.2,61.6,29.83,North,32767,0.0,0.0,88,0.00,,,0.00,Wunderground v.1.15,2013-03-22 22:30:00,
2013-03-22 17:35:00,65.1,61.5,29.82,North,32767,0.0,0.0,88,0.00,,,0.00,Wunderground v.1.15,2013-03-22 22:35:00,
2013-03-22 17:40:00,65.1,61.5,29.83,North,32767,0.0,0.0,88,0.00,,,0.00,Wunderground v.1.15,2013-03-22 22:40:00,
2013-03-22 17:45:00,65.1,61.5,29.83,North,32767,0.0,0.0,88,0.00,,,0.00,Wunderground v.1.15,2013-03-22 22:45:00,
2013-03-22 17:50:00,65.1,61.5,29.83,North,32767,0.0,0.0,88,0.00,,,0.00,Wunderground v.1.15,2013-03-22 22:50:00,
2013-03-22 17:55:00,65.1,61.5,29.83,North,32767,0.0,0.0,88,0.00,,,0.00,Wunderground v.1.15,2013-03-22 22:55:00,
2013-03-22 18:00:00,65.2,61.6,29.83,North,32767,0.0,0.0,88,0.00,,,0.00,Wunderground v.1.15,2013-03-22 23:00:00,
2013-03-22 18:05:00,65.2,61.6,29.83,North,32767,0.0,0.0,88,0.00,,,0.00,Wunderground v.1.15,2013-03-22 23:05:00,
2013-03-22 18:10:00,65.2,61.6,29.83,North,32767,0.0,0.0,88,0.00,,,0.00,Wunderground v.1.15,2013-03-22 23:10:00,
2013-03-22 18:15:00,65.2,61.9,29.83,North,32767,0.0,0.0,89,0.00,,,0.00,Wunderground v.1.15,2013-03-22 23:15:00,
2013-03-22 18:20:00,65.3,62.0,29.83,North,32767,0.0,0.0,89,0.00,,,0.00,Wunderground v.1.15,2013-03-22 23:20:00,
2013-03-22 18:25:00,65.2,61.9,29.83,North,32767,0.0,0.0,89,0.00,,,0.00,Wunderground v.1.15,2013-03-22 23:25:00,
2013-03-22 18:30:00,65.0,61.7,29.83,North,32767,0.0,0.0,89,0.00,,,0.00,Wunderground v.1.15,2013-03-22 23:30:00,
2013-03-22 18:35:00,65.0,61.7,29.83,North,32767,0.0,0.0,89,0.00,,,0.00,Wunderground v.1.15,2013-03-22 23:35:00,
2013-03-22 18:40:00,64.9,61.9,29.83,North,32767,0.0,0.0,90,0.00,,,0.00,Wunderground v.1.15,2013-03-22 23:40:00,
2013-03-22 18:45:00,64.9,61.9,29.83,North,32767,0.0,0.0,90,0.00,,,0.00,Wunderground v.1.15,2013-03-22 23:45:00,
2013-03-22 18:50:00,64.8,61.8,29.83,North,32767,0.0,0.0,90,0.00,,,0.00,Wunderground v.1.15,2013-03-22 23:50:00,
2013-03-22 18:55:00,64.7,61.7,29.83,North,32767,0.0,0.0,90,0.00,,,0.00,Wunderground v.1.15,2013-03-22 23:55:00,
2013-03-22 19:00:00,64.7,61.7,29.83,North,32767,0.0,0.0,90,0.00,,,0.00,Wunderground v.1.15,2013-03-23 00:00:00,
2013-03-22 19:05:00,64.7,61.7,29.83,North,32767,0.0,0.0,90,0.00,,,0.00,Wunderground v.1.15,2013-03-23 00:05:00,
2013-03-22 19:15:00,64.6,61.6,29.83,North,32767,0.0,0.0,90,0.00,,,0.00,Wunderground v.1.15,2013-03-23 00:15:00,
2013-03-22 19:20:00,64.6,61.6,29.83,North,32767,0.0,0.0,90,0.00,,,0.00,Wunderground v.1.15,2013-03-23 00:20:00,
2013-03-22 19:25:00,64.6,61.6,29.83,North,32767,0.0,0.0,90,0.00,,,0.00,Wunderground v.1.15,2013-03-23 00:25:00,
2013-03-22 19:30:00,64.6,61.6,29.84,North,32767,0.0,0.0,90,0.00,,,0.00,Wunderground v.1.15,2013-03-23 00:30:00,
2013-03-22 19:35:00,64.6,61.6,29.84,North,32767,0.0,0.0,90,0.00,,,0.00,Wunderground v.1.15,2013-03-23 00:35:00,
2013-03-22 19:40:00,64.6,61.9,29.84,North,32767,0.0,0.0,91,0.00,,,0.00,Wunderground v.1.15,2013-03-23 00:40:00,
2013-03-22 19:45:00,64.5,61.8,29.84,North,32767,0.0,0.0,91,0.00,,,0.00,Wunderground v.1.15,2013-03-23 00:45:00,
2013-03-22 19:50:00,64.3,61.9,29.84,North,32767,0.0,0.0,92,0.00,,,0.00,Wunderground v.1.15,2013-03-23 00:50:00,
2013-03-22 19:55:00,64.2,61.8,29.84,North,32767,0.0,0.0,92,0.00,,,0.00,Wunderground v.1.15,2013-03-23 00:55:00,
2013-03-22 20:00:00,64.1,61.7,29.84,North,32767,0.0,0.0,92,0.00,,,0.00,Wunderground v.1.15,2013-03-23 01:00:00,
2013-03-22 20:05:00,64.0,61.6,29.84,North,32767,0.0,0.0,92,0.00,,,0.00,Wunderground v.1.15,2013-03-23 01:05:00,
2013-03-22 20:10:00,63.9,61.5,29.84,North,32767,0.0,0.0,92,0.00,,,0.00,Wunderground v.1.15,2013-03-23 01:10:00,
2013-03-22 20:20:00,63.6,61.2,29.84,North,32767,0.0,0.0,92,0.00,,,0.00,Wunderground v.1.15,2013-03-23 01:20:00,
2013-03-22 20:25:00,63.6,61.2,29.84,North,32767,0.0,0.0,92,0.00,,,0.00,Wunderground v.1.15,2013-03-23 01:25:00,
2013-03-22 20:30:00,63.5,61.1,29.85,North,32767,0.0,0.0,92,0.00,,,0.00,Wunderground v.1.15,2013-03-23 01:30:00,
2013-03-22 20:35:00,63.5,61.1,29.84,North,32767,0.0,0.0,92,0.00,,,0.00,Wunderground v.1.15,2013-03-23 01:35:00,
2013-03-22 20:40:00,63.5,61.1,29.84,North,32767,0.0,0.0,92,0.00,,,0.00,Wunderground v.1.15,2013-03-23 01:40:00,
2013-03-22 20:45:00,63.5,61.1,29.84,North,32767,0.0,0.0,92,0.00,,,0.00,Wunderground v.1.15,2013-03-23 01:45:00,
2013-03-22 20:55:00,63.7,61.6,29.84,North,32767,0.0,0.0,93,0.00,,,0.00,Wunderground v.1.15,2013-03-23 01:55:00,
2013-03-22 21:00:00,63.8,61.7,29.85,North,32767,0.0,0.0,93,0.00,,,0.00,Wunderground v.1.15,2013-03-23 02:00:00,
2013-03-22 21:05:00,63.9,61.5,29.84,North,32767,0.0,0.0,92,0.00,,,0.00,Wunderground v.1.15,2013-03-23 02:05:00,
2013-03-22 21:15:00,64.0,61.6,29.84,North,32767,0.0,0.0,92,0.00,,,0.00,Wunderground v.1.15,2013-03-23 02:15:00,
2013-03-22 21:20:00,64.0,61.6,29.84,North,32767,0.0,0.0,92,0.00,,,0.00,Wunderground v.1.15,2013-03-23 02:20:00,
2013-03-22 21:25:00,64.0,61.6,29.84,North,32767,0.0,0.0,92,0.00,,,0.00,Wunderground v.1.15,2013-03-23 02:25:00,
2013-03-22 21:30:00,63.9,61.5,29.84,North,32767,0.0,0.0,92,0.00,,,0.00,Wunderground v.1.15,2013-03-23 02:30:00,
2013-03-22 21:40:00,63.8,61.4,29.85,North,32767,0.0,0.0,92,0.00,,,0.00,Wunderground v.1.15,2013-03-23 02:40:00,
2013-03-22 21:45:00,63.7,61.3,29.85,North,32767,0.0,0.0,92,0.00,,,0.00,Wunderground v.1.15,2013-03-23 02:45:00,
2013-03-22 21:50:00,63.6,61.2,29.85,North,32767,0.0,0.0,92,0.00,,,0.00,Wunderground v.1.15,2013-03-23 02:50:00,
2013-03-22 21:55:00,63.6,61.5,29.85,North,32767,0.0,0.0,93,0.00,,,0.00,Wunderground v.1.15,2013-03-23 02:55:00,
2013-03-22 22:00:00,63.5,61.4,29.85,North,32767,0.0,0.0,93,0.00,,,0.00,Wunderground v.1.15,2013-03-23 03:00:00,
2013-03-22 22:05:00,63.5,61.4,29.85,North,32767,0.0,0.0,93,0.00,,,0.00,Wunderground v.1.15,2013-03-23 03:05:00,
2013-03-22 22:15:00,63.5,61.4,29.85,North,32767,0.0,0.0,93,0.00,,,0.00,Wunderground v.1.15,2013-03-23 03:15:00,
2013-03-22 22:20:00,63.5,61.4,29.85,North,32767,0.0,0.0,93,0.00,,,0.00,Wunderground v.1.15,2013-03-23 03:20:00,
2013-03-22 22:25:00,63.5,61.4,29.86,North,32767,0.0,0.0,93,0.00,,,0.00,Wunderground v.1.15,2013-03-23 03:25:00,
2013-03-22 22:30:00,63.6,61.5,29.86,North,32767,0.0,0.0,93,0.00,,,0.00,Wunderground v.1.15,2013-03-23 03:30:00,
2013-03-22 22:35:00,63.6,61.5,29.85,North,32767,0.0,0.0,93,0.00,,,0.00,Wunderground v.1.15,2013-03-23 03:35:00,
2013-03-22 22:40:00,63.7,61.6,29.86,North,32767,0.0,0.0,93,0.00,,,0.00,Wunderground v.1.15,2013-03-23 03:40:00,
2013-03-22 22:45:00,63.7,61.6,29.85,North,32767,0.0,0.0,93,0.00,,,0.00,Wunderground v.1.15,2013-03-23 03:45:00,
2013-03-22 22:50:00,63.7,61.6,29.85,North,32767,0.0,0.0,93,0.00,,,0.00,Wunderground v.1.15,2013-03-23 03:50:00,
2013-03-22 22:55:00,63.8,61.7,29.86,North,32767,0.0,0.0,93,0.00,,,0.00,Wunderground v.1.15,2013-03-23 03:55:00,
2013-03-22 23:00:00,63.8,61.7,29.85,North,32767,0.0,0.0,93,0.00,,,0.00,Wunderground v.1.15,2013-03-23 04:00:00,
2013-03-22 23:05:00,63.8,61.7,29.86,North,32767,0.0,0.0,93,0.00,,,0.00,Wunderground v.1.15,2013-03-23 04:05:00,
2013-03-22 23:15:00,63.9,61.8,29.86,North,32767,0.0,0.0,93,0.00,,,0.00,Wunderground v.1.15,2013-03-23 04:15:00,
2013-03-22 23:20:00,63.9,61.8,29.85,North,32767,0.0,0.0,93,0.00,,,0.00,Wunderground v.1.15,2013-03-23 04:20:00,
2013-03-22 23:25:00,63.9,61.8,29.86,North,32767,0.0,0.0,93,0.00,,,0.00,Wunderground v.1.15,2013-03-23 04:25:00,
2013-03-22 23:30:00,63.9,61.8,29.86,North,32767,0.0,0.0,93,0.00,,,0.00,Wunderground v.1.15,2013-03-23 04:30:00,
2013-03-22 23:35:00,64.0,61.9,29.86,North,32767,0.0,0.0,93,0.00,,,0.00,Wunderground v.1.15,2013-03-23 04:35:00,
2013-03-22 23:40:00,64.0,61.9,29.86,North,32767,0.0,0.0,93,0.00,,,0.00,Wunderground v.1.15,2013-03-23 04:40:00,
2013-03-22 23:45:00,64.0,61.9,29.85,North,32767,0.0,0.0,93,0.00,,,0.00,Wunderground v.1.15,2013-03-23 04:45:00,
2013-03-22 23:50:00,64.0,61.9,29.86,North,32767,0.0,0.0,93,0.00,,,0.00,Wunderground v.1.15,2013-03-23 04:50:00,
2013-03-22 23:55:00,64.0,61.9,29.86,North,32767,0.0,0.0,93,0.00,,,0.00,Wunderground v.1.15,2013-03-23 04:55:00,